createdAt,value
2018-12-13T00:01:51.018Z,19.95
2018-12-13T00:04:27.041Z,16.60
2018-12-13T00:07:02.827Z,16.23
2018-12-13T00:09:38.880Z,10.20
2018-12-13T00:12:14.961Z,12.67
2018-12-13T00:14:51.100Z,18.83
2018-12-13T00:17:27.139Z,21.23
2018-12-13T00:20:05.333Z,16.07
2018-12-13T00:22:41.347Z,18.10
2018-12-13T00:25:17.534Z,18.40
2018-12-13T00:27:53.526Z,17.70
2018-12-13T00:30:29.455Z,17.07
2018-12-13T00:33:05.606Z,18.90
2018-12-13T00:35:41.599Z,18.83
2018-12-13T00:38:17.405Z,22.77
2018-12-13T00:40:53.733Z,18.23
2018-12-13T00:43:29.831Z,14.33
2018-12-13T00:46:05.862Z,12.70
2018-12-13T00:48:41.955Z,10.20
2018-12-13T00:51:17.843Z,11.50
2018-12-13T00:53:54.097Z,14.90
2018-12-13T00:56:30.393Z,16.63
2018-12-13T00:59:06.534Z,13.13
2018-12-13T01:01:42.833Z,13.20
2018-12-13T01:04:19.421Z,11.53
2018-12-13T01:06:55.589Z,11.50
2018-12-13T01:09:31.653Z,15.23
2018-12-13T01:12:07.687Z,15.27
2018-12-13T01:14:43.769Z,9.57
2018-12-13T01:17:20.143Z,22.20
2018-12-13T01:19:56.211Z,18.97
2018-12-13T01:22:32.236Z,17.47
2018-12-13T01:25:08.802Z,23.77
2018-12-13T01:27:45.104Z,18.70
2018-12-13T01:30:21.089Z,15.00
2018-12-13T01:32:56.975Z,12.47
2018-12-13T01:35:33.191Z,13.80
2018-12-13T01:38:09.237Z,12.13
2018-12-13T01:40:45.603Z,12.53
2018-12-13T01:43:21.647Z,16.67
2018-12-13T01:45:57.724Z,15.20
2018-12-13T01:48:33.768Z,16.53
2018-12-13T01:51:09.836Z,12.87
2018-12-13T01:53:45.879Z,8.67
2018-12-13T01:56:21.980Z,12.07
2018-12-13T01:58:58.017Z,11.10
2018-12-13T02:01:34.093Z,10.10
2018-12-13T02:04:10.121Z,13.70
2018-12-13T02:06:46.185Z,13.63
2018-12-13T02:09:22.263Z,18.77
2018-12-13T02:11:58.332Z,21.37
2018-12-13T02:14:34.844Z,10.57
2018-12-13T02:17:10.775Z,11.20
2018-12-13T02:19:47.099Z,11.27
2018-12-13T02:22:23.196Z,14.30
2018-12-13T02:24:59.560Z,18.27
2018-12-13T02:27:35.616Z,16.67
2018-12-13T02:30:12.446Z,15.23
2018-12-13T02:32:49.323Z,15.87
2018-12-13T02:35:25.331Z,13.40
2018-12-13T02:38:01.386Z,13.03
2018-12-13T02:40:37.948Z,12.47
2018-12-13T02:43:14.138Z,13.33
2018-12-13T02:45:50.160Z,13.50
2018-12-13T02:48:26.247Z,13.90
2018-12-13T02:51:02.277Z,15.23
2018-12-13T02:53:38.378Z,14.50
2018-12-13T02:56:14.390Z,23.23
2018-12-13T02:58:50.167Z,18.57
2018-12-13T03:01:26.144Z,20.57
2018-12-13T03:04:02.290Z,24.23
2018-12-13T03:06:38.327Z,22.70
2018-12-13T03:09:14.415Z,22.07
2018-12-13T03:11:50.469Z,20.20
2018-12-13T03:14:26.554Z,20.30
2018-12-13T03:17:02.692Z,22.77
2018-12-13T03:19:39.024Z,25.50
2018-12-13T03:22:15.068Z,22.83
2018-12-13T03:24:50.990Z,22.40
2018-12-13T03:27:27.131Z,20.20
2018-12-13T03:30:03.725Z,19.53
2018-12-13T03:32:39.733Z,29.27
2018-12-13T03:35:15.733Z,27.30
2018-12-13T03:37:51.986Z,22.20
2018-12-13T03:40:28.369Z,20.30
2018-12-13T03:43:04.438Z,21.93
2018-12-13T03:45:40.487Z,20.03
2018-12-13T03:48:16.539Z,24.60
2018-12-13T03:50:53.111Z,23.63
2018-12-13T03:53:28.963Z,23.60
2018-12-13T03:56:05.062Z,26.93
2018-12-13T03:58:41.426Z,27.00
2018-12-13T04:01:17.483Z,33.83
2018-12-13T04:03:53.499Z,39.03
2018-12-13T04:06:29.625Z,24.23
2018-12-13T04:09:07.529Z,18.70
2018-12-13T04:22:05.550Z,51.17
2018-12-13T04:24:41.689Z,35.33
2018-12-13T04:27:17.775Z,55.83
2018-12-13T04:29:54.310Z,41.80
2018-12-13T04:32:30.224Z,33.93
2018-12-13T04:35:06.389Z,39.03
2018-12-13T04:37:42.624Z,33.90
2018-12-13T04:40:18.661Z,36.83
2018-12-13T04:42:54.750Z,31.67
2018-12-13T04:45:30.783Z,31.40
2018-12-13T04:48:06.729Z,26.70
2018-12-13T04:50:42.905Z,19.93
2018-12-13T04:53:18.980Z,31.47
2018-12-13T04:55:55.150Z,44.93
2018-12-13T04:58:31.572Z,44.37
2018-12-13T05:01:07.526Z,66.60
2018-12-13T05:03:43.520Z,73.77
2018-12-13T05:06:19.570Z,77.50
2018-12-13T05:08:55.683Z,63.60
2018-12-13T05:11:32.087Z,52.30
2018-12-13T05:14:08.736Z,51.17
2018-12-13T05:16:44.697Z,56.60
2018-12-13T05:19:20.837Z,76.00
2018-12-13T05:21:57.176Z,55.53
2018-12-13T05:24:33.318Z,45.67
2018-12-13T05:27:09.266Z,49.03
2018-12-13T05:29:45.153Z,36.13
2018-12-13T05:32:21.432Z,119.27
2018-12-13T05:34:57.806Z,27.40
2018-12-13T05:37:33.987Z,22.10
2018-12-13T05:40:09.916Z,28.80
2018-12-13T05:42:45.940Z,29.53
2018-12-13T05:45:22.049Z,59.30
2018-12-13T05:47:58.096Z,91.33
2018-12-13T05:50:34.158Z,82.47
2018-12-13T05:53:10.203Z,79.63
2018-12-13T05:55:46.280Z,78.43
2018-12-13T05:58:22.097Z,53.07
2018-12-13T06:00:58.121Z,55.00
2018-12-13T06:03:34.754Z,58.43
2018-12-13T06:07:35.145Z,33.83
2018-12-13T06:10:13.512Z,56.13
2018-12-13T06:12:49.591Z,53.30
2018-12-13T06:15:25.617Z,54.23
2018-12-13T06:18:06.800Z,86.87
2018-12-13T06:20:48.112Z,123.03
2018-12-13T06:23:24.053Z,79.40
2018-12-13T06:26:00.002Z,41.27
2018-12-13T06:28:36.110Z,36.00
2018-12-13T06:31:12.111Z,70.17
2018-12-13T06:33:48.205Z,44.03
2018-12-13T06:36:27.006Z,33.63
2018-12-13T06:39:04.240Z,37.30
2018-12-13T06:41:40.353Z,46.53
2018-12-13T06:44:17.069Z,43.33
2018-12-13T06:46:53.672Z,48.47
2018-12-13T06:49:29.782Z,36.57
2018-12-13T06:52:05.818Z,58.87
2018-12-13T06:54:41.916Z,69.93
2018-12-13T06:57:18.248Z,67.70
2018-12-13T06:59:54.360Z,64.33
2018-12-13T07:02:30.604Z,100.63
2018-12-13T07:05:07.314Z,62.50
2018-12-13T07:07:43.422Z,44.30
2018-12-13T07:10:19.560Z,61.03
2018-12-13T07:12:55.860Z,86.73
2018-12-13T07:15:31.921Z,74.97
2018-12-13T07:18:07.949Z,92.27
2018-12-13T07:20:43.738Z,76.93
2018-12-13T07:23:19.761Z,64.77
2018-12-13T07:25:55.966Z,59.47
2018-12-13T07:28:31.885Z,80.23
2018-12-13T07:31:07.997Z,70.67
2018-12-13T07:33:44.042Z,79.13
2018-12-13T07:36:20.590Z,68.13
2018-12-13T07:38:57.962Z,59.97
2018-12-13T07:41:35.206Z,37.77
2018-12-13T07:44:11.321Z,40.00
2018-12-13T07:46:47.403Z,48.63
2018-12-13T07:49:23.449Z,42.57
2018-12-13T07:51:59.556Z,39.50
2018-12-13T07:54:38.034Z,43.63
2018-12-13T07:57:14.190Z,49.93
2018-12-13T07:59:50.125Z,61.23
2018-12-13T08:02:25.983Z,53.37
2018-12-13T08:05:01.962Z,47.67
2018-12-13T08:07:38.083Z,51.27
2018-12-13T08:10:14.057Z,52.83
2018-12-13T08:12:51.233Z,50.70
2018-12-13T08:15:27.141Z,74.90
2018-12-13T08:18:03.226Z,55.30
2018-12-13T08:20:39.265Z,57.23
2018-12-13T08:23:15.434Z,53.03
2018-12-13T08:25:51.430Z,64.07
2018-12-13T08:28:27.777Z,65.37
2018-12-13T08:38:10.011Z,78.57
2018-12-13T08:40:47.243Z,66.00
2018-12-13T08:43:23.327Z,69.57
2018-12-13T08:45:59.378Z,61.23
2018-12-13T08:48:35.793Z,52.40
2018-12-13T08:51:12.640Z,68.60
2018-12-13T08:53:48.741Z,108.43
2018-12-13T08:56:25.135Z,86.30
2018-12-13T08:59:01.258Z,57.90
2018-12-13T09:01:37.485Z,63.10
2018-12-13T09:04:13.767Z,54.73
2018-12-13T09:06:49.582Z,52.30
2018-12-13T09:09:25.714Z,47.47
2018-12-13T09:12:01.729Z,49.67
2018-12-13T09:14:37.827Z,44.67
2018-12-13T09:17:13.978Z,62.27
2018-12-13T09:19:50.337Z,70.10
2018-12-13T09:22:26.605Z,57.00
2018-12-13T09:25:02.688Z,62.33
2018-12-13T09:27:38.709Z,56.87
2018-12-13T09:30:15.325Z,44.33
2018-12-13T09:32:51.459Z,23.93
2018-12-13T09:35:27.886Z,44.77
2018-12-13T09:38:04.179Z,58.97
2018-12-13T09:40:40.282Z,51.40
2018-12-13T09:43:16.418Z,56.43
2018-12-13T09:45:52.427Z,59.83
2018-12-13T09:48:28.435Z,52.90
2018-12-13T09:51:04.597Z,43.63
2018-12-13T09:53:40.546Z,44.20
2018-12-13T09:56:16.646Z,50.50
2018-12-13T09:58:52.675Z,55.47
2018-12-13T10:01:28.766Z,58.13
2018-12-13T10:04:04.821Z,53.53
2018-12-13T10:06:40.933Z,44.00
2018-12-13T10:09:16.773Z,37.87
2018-12-13T10:11:53.014Z,41.57
2018-12-13T10:14:29.022Z,46.57
2018-12-13T10:17:05.278Z,49.00
2018-12-13T10:19:41.471Z,46.03
2018-12-13T10:22:17.661Z,44.67
2018-12-13T10:24:53.870Z,49.97
2018-12-13T10:27:29.821Z,52.00
2018-12-13T10:30:06.749Z,36.50
2018-12-13T10:32:43.041Z,36.17
2018-12-13T10:35:19.228Z,32.03
2018-12-13T10:37:55.538Z,47.80
2018-12-13T10:40:31.780Z,27.63
2018-12-13T10:43:07.874Z,27.73
2018-12-13T10:45:44.362Z,29.33
2018-12-13T10:48:20.312Z,22.47
2018-12-13T10:50:56.303Z,25.80
2018-12-13T10:53:32.491Z,33.53
2018-12-13T10:56:08.457Z,54.30
2018-12-13T10:58:44.559Z,42.43
2018-12-13T11:01:25.755Z,47.03
2018-12-13T11:04:01.893Z,50.23
2018-12-13T11:06:37.899Z,46.77
2018-12-13T11:09:14.156Z,37.30
2018-12-13T11:11:50.346Z,29.80
2018-12-13T11:14:26.168Z,34.97
2018-12-13T11:17:02.129Z,28.63
2018-12-13T11:19:38.259Z,40.73
2018-12-13T11:22:14.607Z,36.60
2018-12-13T11:24:50.775Z,21.30
2018-12-13T11:29:39.913Z,16.03
2018-12-13T11:32:16.590Z,18.53
2018-12-13T11:34:52.382Z,21.07
2018-12-13T11:37:28.589Z,23.33
2018-12-13T11:40:04.723Z,18.77
2018-12-13T11:42:41.012Z,15.10
2018-12-13T11:45:17.039Z,33.60
2018-12-13T11:47:53.138Z,13.67
2018-12-13T11:50:29.138Z,16.57
2018-12-13T11:53:05.242Z,14.83
2018-12-13T11:55:41.291Z,18.53
2018-12-13T11:58:17.787Z,23.67
2018-12-13T12:00:53.983Z,18.77
2018-12-13T12:03:30.091Z,22.13
2018-12-13T12:06:06.103Z,19.47
2018-12-13T12:08:42.237Z,15.53
2018-12-13T12:11:18.643Z,15.53
2018-12-13T12:13:54.737Z,21.73
2018-12-13T12:16:30.699Z,14.13
2018-12-13T12:19:06.789Z,19.60
2018-12-13T12:21:42.791Z,17.20
2018-12-13T12:24:18.885Z,17.17
2018-12-13T12:26:54.897Z,12.27
2018-12-13T12:29:31.058Z,24.73
2018-12-13T12:32:07.036Z,27.10
2018-12-13T12:34:43.035Z,25.53
2018-12-13T12:37:19.146Z,28.67
2018-12-13T12:39:55.210Z,30.03
2018-12-13T12:42:31.288Z,44.87
2018-12-13T12:45:08.639Z,35.10
2018-12-13T12:47:44.625Z,51.60
2018-12-13T12:50:20.774Z,25.80
2018-12-13T12:52:56.722Z,33.97
2018-12-13T12:55:32.859Z,51.20
2018-12-13T12:58:08.831Z,37.13
2018-12-13T13:00:44.973Z,49.40
2018-12-13T13:03:20.961Z,48.00
2018-12-13T13:05:57.075Z,42.43
2018-12-13T13:08:33.097Z,35.17
2018-12-13T13:11:09.431Z,33.93
2018-12-13T13:13:45.535Z,26.63
2018-12-13T13:16:22.029Z,29.90
2018-12-13T13:18:57.918Z,40.30
2018-12-13T13:21:34.598Z,36.33
2018-12-13T13:24:10.653Z,37.27
2018-12-13T13:26:46.802Z,41.10
2018-12-13T13:29:22.780Z,41.67
2018-12-13T13:31:59.345Z,49.57
2018-12-13T13:34:35.565Z,60.00
2018-12-13T13:37:11.959Z,79.87
2018-12-13T13:39:47.965Z,72.63
2018-12-13T13:42:24.083Z,72.80
2018-12-13T13:45:02.679Z,89.07
2018-12-13T13:47:41.549Z,75.87
2018-12-13T13:50:18.718Z,70.47
2018-12-13T13:52:54.690Z,98.03
2018-12-13T13:55:30.551Z,92.03
2018-12-13T13:58:06.571Z,86.20
2018-12-13T14:00:42.601Z,87.87
2018-12-13T14:03:19.129Z,98.80
2018-12-13T14:05:55.368Z,107.90
2018-12-13T14:08:31.912Z,98.10
2018-12-13T14:11:08.081Z,93.43
2018-12-13T14:13:44.995Z,100.10
2018-12-13T14:16:20.857Z,82.90
2018-12-13T14:18:56.988Z,67.77
2018-12-13T14:21:32.928Z,57.13
2018-12-13T14:24:09.054Z,67.10
2018-12-13T14:26:45.067Z,91.83
2018-12-13T14:29:21.150Z,95.73
2018-12-13T14:31:57.209Z,84.37
2018-12-13T14:34:33.677Z,135.60
2018-12-13T14:37:09.605Z,105.70
2018-12-13T14:39:45.571Z,103.13
2018-12-13T14:42:21.749Z,65.50
2018-12-13T14:45:03.234Z,60.00
2018-12-13T14:47:39.398Z,69.83
2018-12-13T14:50:15.550Z,66.10
2018-12-13T14:52:51.826Z,94.00
2018-12-13T14:55:28.015Z,109.40
2018-12-13T14:58:04.310Z,215.67
2018-12-13T15:00:41.456Z,342.93
2018-12-13T15:03:17.846Z,307.40
2018-12-13T15:05:54.106Z,226.00
2018-12-13T15:08:30.341Z,202.40
2018-12-13T15:11:06.818Z,154.43
2018-12-13T15:13:42.790Z,103.07
2018-12-13T15:16:18.900Z,183.10
2018-12-13T15:18:55.192Z,137.63
2018-12-13T15:21:32.314Z,162.97
2018-12-13T15:24:08.552Z,161.80
2018-12-13T15:26:44.605Z,151.63
2018-12-13T15:29:20.640Z,146.50
2018-12-13T15:31:59.496Z,159.50
2018-12-13T15:34:34.917Z,117.20
2018-12-13T15:37:11.101Z,92.67
2018-12-13T15:39:47.340Z,86.83
2018-12-13T15:42:23.445Z,75.07
2018-12-13T15:44:59.470Z,81.80
2018-12-13T15:47:35.536Z,79.63
2018-12-13T15:50:11.626Z,79.33
2018-12-13T15:52:48.428Z,57.47
2018-12-13T15:55:24.673Z,41.00
2018-12-13T15:58:01.177Z,42.97
2018-12-13T16:00:37.038Z,54.47
2018-12-13T16:03:13.157Z,53.13
2018-12-13T16:05:49.160Z,58.23
2018-12-13T16:08:25.847Z,77.53
2018-12-13T16:11:01.915Z,77.63
2018-12-13T16:13:37.921Z,85.50
2018-12-13T16:16:14.024Z,87.27
2018-12-13T16:18:50.184Z,106.80
2018-12-13T16:21:26.177Z,119.07
2018-12-13T16:24:02.686Z,129.07
2018-12-13T16:26:38.587Z,133.07
2018-12-13T16:29:14.691Z,140.90
2018-12-13T16:31:50.712Z,119.50
2018-12-13T16:34:27.127Z,123.47
2018-12-13T16:37:03.125Z,102.50
2018-12-13T16:39:39.183Z,110.17
2018-12-13T16:42:15.280Z,108.67
2018-12-13T16:44:53.728Z,112.53
2018-12-13T16:47:29.544Z,86.63
2018-12-13T16:50:06.858Z,81.50
2018-12-13T16:52:42.915Z,73.70
2018-12-13T16:55:19.093Z,75.23
2018-12-13T16:57:55.308Z,74.93
2018-12-13T17:00:31.504Z,70.53
2018-12-13T17:03:42.736Z,83.00
2018-12-13T17:06:18.899Z,144.83
2018-12-13T17:08:54.868Z,113.83
2018-12-13T17:11:31.104Z,95.03
2018-12-13T17:14:07.345Z,82.60
2018-12-13T17:16:50.001Z,64.37
2018-12-13T17:19:26.413Z,84.07
2018-12-13T17:22:02.780Z,199.67
2018-12-13T17:24:38.925Z,150.80
2018-12-13T17:27:15.302Z,141.47
2018-12-13T17:29:51.392Z,158.33
2018-12-13T17:32:27.262Z,102.57
2018-12-13T17:35:03.570Z,94.00
2018-12-13T17:37:39.830Z,103.17
2018-12-13T17:40:15.910Z,123.37
2018-12-13T17:42:52.046Z,220.03
2018-12-13T17:45:30.049Z,141.60
2018-12-13T17:48:06.320Z,126.93
2018-12-13T17:50:42.657Z,114.20
2018-12-13T17:53:19.533Z,121.23
2018-12-13T17:55:55.719Z,116.63
2018-12-13T17:58:31.760Z,97.07
2018-12-13T18:01:07.854Z,94.23
2018-12-13T18:03:43.939Z,123.97
2018-12-13T18:06:19.971Z,119.40
2018-12-13T18:08:56.313Z,99.53
2018-12-13T18:11:32.341Z,197.60
2018-12-13T18:14:08.422Z,93.43
2018-12-13T18:16:44.716Z,97.17
2018-12-13T18:19:20.819Z,96.70
2018-12-13T18:21:56.581Z,106.13
2018-12-13T18:24:32.692Z,112.87
2018-12-13T18:27:08.679Z,134.13
2018-12-13T18:29:45.124Z,151.07
2018-12-13T18:32:21.420Z,184.80
2018-12-13T18:35:00.051Z,190.00
2018-12-13T18:37:35.833Z,188.53
2018-12-13T18:40:11.807Z,185.30
2018-12-13T18:42:48.661Z,177.87
2018-12-13T18:45:25.171Z,158.57
2018-12-13T18:48:01.157Z,124.27
2018-12-13T18:50:37.546Z,173.97
2018-12-13T18:53:13.599Z,128.20
2018-12-13T18:55:49.652Z,97.37
2018-12-13T18:58:25.991Z,116.23
2018-12-13T19:01:02.443Z,99.93
2018-12-13T19:03:38.775Z,118.73
2018-12-13T19:06:14.928Z,149.20
2018-12-13T19:08:51.175Z,129.97
2018-12-13T19:11:27.682Z,118.27
2018-12-13T19:14:04.493Z,144.73
2018-12-13T19:16:41.651Z,152.73
2018-12-13T19:19:17.818Z,150.10
2018-12-13T19:21:53.994Z,157.40
2018-12-13T19:24:30.598Z,160.50
2018-12-13T19:27:06.676Z,151.83
2018-12-13T19:29:42.410Z,142.77
2018-12-13T19:32:18.889Z,152.03
2018-12-13T19:35:00.275Z,194.00
2018-12-13T19:37:33.382Z,161.53
2018-12-13T19:40:09.895Z,144.07
2018-12-13T19:42:49.194Z,143.10
2018-12-13T19:45:25.217Z,141.00
2018-12-13T19:48:01.347Z,148.53
2018-12-13T19:50:37.953Z,160.57
2018-12-13T19:53:14.432Z,146.80
2018-12-13T19:55:50.394Z,136.50
2018-12-13T19:58:26.166Z,149.30
2018-12-13T20:01:02.215Z,155.73
2018-12-13T20:03:38.891Z,169.10
2018-12-13T20:06:15.310Z,177.93
2018-12-13T20:08:51.630Z,136.20
2018-12-13T20:11:27.658Z,135.60
2018-12-13T20:14:03.816Z,162.17
2018-12-13T20:16:39.767Z,138.97
2018-12-13T20:19:15.634Z,135.77
2018-12-13T20:21:51.905Z,139.20
2018-12-13T20:24:28.323Z,136.73
2018-12-13T20:27:06.270Z,148.33
2018-12-13T20:29:43.882Z,143.50
2018-12-13T20:32:21.249Z,158.20
2018-12-13T20:34:58.275Z,145.30
2018-12-13T20:37:34.526Z,148.63
2018-12-13T20:40:10.532Z,163.40
2018-12-13T20:42:46.276Z,211.83
2018-12-13T20:45:23.334Z,219.03
2018-12-13T20:47:59.309Z,199.20
2018-12-13T20:50:35.415Z,193.10
2018-12-13T20:53:11.458Z,188.63
2018-12-13T20:55:47.721Z,167.80
2018-12-13T20:58:23.915Z,175.60
2018-12-13T21:01:00.137Z,217.87
2018-12-13T21:03:36.397Z,177.53
2018-12-13T21:06:13.339Z,194.43
2018-12-13T21:08:49.386Z,197.73
2018-12-13T21:11:28.211Z,176.97
2018-12-13T21:14:04.623Z,198.77
2018-12-13T21:16:40.901Z,166.63
2018-12-13T21:19:16.897Z,109.53
2018-12-13T21:21:53.257Z,98.03
2018-12-13T21:24:29.318Z,93.93
2018-12-13T21:27:05.462Z,90.40
2018-12-13T21:29:41.332Z,91.07
2018-12-13T21:32:17.235Z,93.07
2018-12-13T21:34:53.141Z,100.63
2018-12-13T21:37:29.798Z,100.10
2018-12-13T21:40:07.529Z,112.50
2018-12-13T21:42:43.554Z,110.30
2018-12-13T21:45:19.690Z,102.63
2018-12-13T21:47:56.097Z,100.67
2018-12-13T21:50:32.774Z,93.83
2018-12-13T21:53:09.265Z,111.57
2018-12-13T21:55:47.789Z,114.90
2018-12-13T21:58:26.063Z,113.87
2018-12-13T22:01:04.055Z,106.73
2018-12-13T22:03:40.693Z,103.77
2018-12-13T22:06:18.667Z,109.17
2018-12-13T22:08:56.683Z,114.03
2018-12-13T22:11:33.154Z,127.07
2018-12-13T22:14:10.683Z,114.07
2018-12-13T22:16:47.707Z,103.23
2018-12-13T22:19:25.396Z,100.23
2018-12-13T22:22:01.973Z,95.50
2018-12-13T22:24:38.307Z,103.20
2018-12-13T22:30:12.053Z,110.50
2018-12-13T22:32:48.670Z,137.37
2018-12-13T22:35:24.981Z,131.40
2018-12-13T22:38:01.403Z,145.63
2018-12-13T22:40:38.548Z,166.97
2018-12-13T22:43:20.447Z,182.80
2018-12-13T22:45:55.201Z,196.83
2018-12-13T22:48:33.195Z,198.73
2018-12-13T22:51:12.390Z,191.50
2018-12-13T22:53:49.510Z,194.70
2018-12-13T22:56:30.534Z,198.57
2018-12-13T22:59:06.832Z,187.03
2018-12-13T23:01:45.668Z,183.00
2018-12-13T23:04:30.249Z,158.73
2018-12-13T23:07:10.083Z,154.33
2018-12-13T23:09:48.314Z,152.03
2018-12-13T23:12:27.308Z,140.57
2018-12-13T23:15:04.470Z,156.17
2018-12-13T23:17:41.447Z,164.53
2018-12-13T23:20:18.624Z,148.07
2018-12-13T23:22:55.309Z,136.00
2018-12-13T23:25:32.326Z,126.43
2018-12-13T23:28:10.196Z,117.03
2018-12-13T23:30:49.660Z,91.70
2018-12-13T23:33:28.373Z,108.77
2018-12-13T23:36:06.053Z,87.63
2018-12-13T23:38:44.799Z,80.93
2018-12-13T23:41:21.641Z,61.80
2018-12-13T23:44:00.420Z,53.80
2018-12-13T23:46:37.019Z,55.50
2018-12-13T23:49:14.311Z,55.30
2018-12-13T23:51:51.417Z,54.60
2018-12-13T23:54:27.868Z,50.83
2018-12-13T23:57:05.354Z,49.30
2018-12-13T23:59:45.305Z,51.60
